Time;durP1;ratioP1;P1;durP2;ratioP2;P2;SDS_P1;SDS_P2;PMS_P1;PMS_P2;Temp;Humidity;BMP_temperature;BMP_pressure;BME280_temperature;BME280_humidity;BME280_pressure;Samples;Min_cycle;Max_cycle;Signal;HPM_P1;HPM_P2
2022/10/28 00:01:54;;;;;;;7.20;3.60;;;17.10;99.90;;;;;;5076237;28;20448;-82
2022/10/28 00:04:21;;;;;;;10.70;3.30;;;17.20;99.90;;;;;;5075797;28;20453;-84
2022/10/28 00:06:48;;;;;;;8.50;3.43;;;17.10;99.90;;;;;;5075536;28;20442;-82
2022/10/28 00:09:15;;;;;;;5.40;2.60;;;17.10;99.90;;;;;;5075369;28;20491;-82
2022/10/28 00:11:42;;;;;;;7.87;3.20;;;17.10;99.90;;;;;;5074322;28;20449;-81
2022/10/28 00:14:10;;;;;;;6.93;2.97;;;16.90;99.90;;;;;;5075542;28;20446;-82
2022/10/28 00:16:38;;;;;;;6.70;2.93;;;16.80;99.90;;;;;;5075481;28;20803;-84
2022/10/28 00:19:07;;;;;;;6.80;3.00;;;16.80;99.90;;;;;;5075437;28;20465;-81
2022/10/28 00:21:36;;;;;;;10.23;2.93;;;16.80;99.90;;;;;;5075527;28;20460;-81
2022/10/28 00:24:03;;;;;;;4.80;2.50;;;16.80;99.90;;;;;;5075288;28;20442;-83
2022/10/28 00:26:31;;;;;;;9.20;3.10;;;16.90;99.90;;;;;;5074042;28;20803;-82
2022/10/28 00:28:59;;;;;;;7.37;3.30;;;17.10;99.90;;;;;;5075238;28;20485;-82
2022/10/28 00:31:28;;;;;;;5.63;2.63;;;17.20;99.90;;;;;;5075270;28;20453;-82
2022/10/28 00:33:58;;;;;;;3.20;2.77;;;17.20;99.90;;;;;;5075165;28;20450;-81
2022/10/28 00:36:27;;;;;;;3.77;2.07;;;17.30;99.90;;;;;;5075040;28;20449;-85
2022/10/28 00:38:55;;;;;;;7.10;3.10;;;17.30;99.90;;;;;;5075156;28;20465;-84
2022/10/28 00:41:25;;;;;;;5.60;2.93;;;17.20;99.90;;;;;;5073453;28;20459;-81
2022/10/28 00:43:53;;;;;;;4.40;2.27;;;17.30;99.90;;;;;;5074687;28;20971;-83
2022/10/28 00:46:28;;;;;;;5.90;3.00;;;16.50;99.90;;;;;;5039610;28;20450;-81
2022/10/28 00:48:59;;;;;;;4.93;2.70;;;17.10;99.90;;;;;;5074809;28;20845;-81
2022/10/28 00:51:28;;;;;;;9.40;3.67;;;17.10;99.90;;;;;;5074843;28;20450;-81
2022/10/28 00:53:56;;;;;;;3.77;2.53;;;17.00;99.90;;;;;;5074791;28;20453;-81
2022/10/28 00:56:25;;;;;;;4.60;2.07;;;17.00;99.90;;;;;;5073590;28;20533;-81
2022/10/28 00:58:59;;;;;;;6.30;2.50;;;17.00;99.90;;;;;;5074718;28;20457;-82
2022/10/28 01:01:26;;;;;;;6.63;2.57;;;;;;;;;;5074523;28;20465;-82
2022/10/28 01:03:55;;;;;;;9.83;2.80;;;17.40;99.90;;;;;;5074511;28;20446;-84
2022/10/28 01:06:23;;;;;;;6.83;3.17;;;17.10;99.90;;;;;;5073896;28;20515;-82
2022/10/28 01:08:50;;;;;;;7.00;3.40;;;17.30;99.90;;;;;;5074181;28;21022;-82
2022/10/28 01:11:50;;;;;;;7.67;3.90;;;17.40;99.90;;;;;;5073201;28;20445;-81
2022/10/28 01:14:39;;;;;;;10.70;3.37;;;17.10;99.90;;;;;;5070678;28;20555;-83
2022/10/28 01:17:24;;;;;;;5.27;2.40;;;17.50;99.90;;;;;;5075376;28;20544;-82
2022/10/28 01:20:24;;;;;;;6.23;2.90;;;17.10;99.90;;;;;;5074247;28;20933;-82
2022/10/28 01:23:01;;;;;;;10.60;2.93;;;17.20;99.90;;;;;;5074252;28;20441;-81
2022/10/28 01:25:49;;;;;;;13.03;2.60;;;17.60;99.90;;;;;;5069687;28;20448;-82
2022/10/28 01:28:33;;;;;;;7.77;3.00;;;17.10;99.90;;;;;;5067565;28;20481;-82
2022/10/28 01:31:17;;;;;;;10.03;2.83;;;17.30;99.90;;;;;;5074142;28;20454;-81
2022/10/28 01:33:50;;;;;;;10.77;3.20;;;17.50;99.90;;;;;;5071365;28;20454;-81
2022/10/28 01:36:22;;;;;;;3.17;1.90;;;17.60;99.90;;;;;;5075054;28;20454;-83
2022/10/28 01:38:54;;;;;;;6.23;2.07;;;17.60;99.90;;;;;;5072452;28;20464;-81
2022/10/28 01:41:29;;;;;;;3.57;2.00;;;17.60;99.90;;;;;;5071163;28;20453;-83
2022/10/28 01:44:01;;;;;;;3.77;2.37;;;17.10;99.90;;;;;;5073830;28;20472;-82
2022/10/28 01:46:36;;;;;;;7.10;3.07;;;17.30;99.90;;;;;;5073815;28;20457;-83
2022/10/28 01:49:09;;;;;;;4.80;2.83;;;17.30;99.90;;;;;;5073692;28;20504;-83
2022/10/28 01:51:41;;;;;;;10.20;2.30;;;17.40;99.90;;;;;;5074634;28;20461;-83
2022/10/28 01:54:11;;;;;;;6.40;2.70;;;17.20;99.90;;;;;;5072053;28;20461;-84
2022/10/28 01:56:41;;;;;;;6.10;2.90;;;17.10;99.90;;;;;;5072378;28;20460;-81
2022/10/28 01:59:13;;;;;;;7.30;2.50;;;16.40;99.90;;;;;;5073461;28;20462;-83
2022/10/28 02:01:41;;;;;;;3.27;2.70;;;16.60;99.90;;;;;;5073196;28;20430;-83
2022/10/28 02:04:08;;;;;;;4.00;2.57;;;17.30;99.90;;;;;;5073307;28;20448;-84
2022/10/28 02:06:35;;;;;;;8.50;3.33;;;;;;;;;;5073472;28;20452;-81
2022/10/28 02:09:19;;;;;;;6.57;2.60;;;17.00;99.90;;;;;;5072709;28;20500;-83
2022/10/28 02:12:01;;;;;;;8.93;3.13;;;17.00;99.90;;;;;;5072261;28;20503;-84
2022/10/28 02:14:41;;;;;;;5.40;2.53;;;17.00;99.90;;;;;;5071548;28;20445;-82
2022/10/28 02:17:19;;;;;;;6.40;2.90;;;16.90;99.90;;;;;;5072825;28;20438;-82
2022/10/28 02:19:53;;;;;;;5.00;2.50;;;16.80;99.90;;;;;;5072848;28;20441;-82
2022/10/28 02:22:24;;;;;;;5.40;2.30;;;16.80;99.90;;;;;;5070646;28;20445;-83
2022/10/28 02:25:01;;;;;;;5.90;2.63;;;16.70;99.90;;;;;;5073050;28;20446;-83
2022/10/28 02:27:34;;;;;;;4.47;2.50;;;16.60;99.90;;;;;;5071850;28;20449;-82
2022/10/28 02:30:06;;;;;;;4.60;2.57;;;16.80;99.90;;;;;;5073163;28;20445;-84
2022/10/28 02:32:38;;;;;;;4.77;2.17;;;16.60;99.90;;;;;;5072979;28;20449;-82
2022/10/28 02:35:09;;;;;;;9.43;2.77;;;17.00;99.90;;;;;;5072964;28;20489;-82
2022/10/28 02:37:38;;;;;;;6.50;2.90;;;16.80;99.90;;;;;;5072854;28;20450;-81
2022/10/28 02:40:11;;;;;;;4.43;2.50;;;16.70;99.90;;;;;;5072967;28;20445;-84
2022/10/28 02:42:44;;;;;;;4.40;2.67;;;16.60;99.90;;;;;;5071688;28;20949;-81
2022/10/28 02:45:14;;;;;;;6.70;2.50;;;16.70;99.90;;;;;;5072916;28;20446;-82
2022/10/28 02:47:48;;;;;;;8.40;2.87;;;16.30;99.90;;;;;;5072719;28;20450;-82
2022/10/28 02:50:19;;;;;;;6.27;2.73;;;16.40;99.90;;;;;;5072849;28;20446;-83
2022/10/28 02:52:50;;;;;;;7.37;2.43;;;16.40;99.90;;;;;;5072508;28;20445;-82
2022/10/28 02:55:19;;;;;;;4.03;2.60;;;16.40;99.90;;;;;;5072723;28;20453;-82
2022/10/28 02:57:48;;;;;;;4.13;2.63;;;16.50;99.90;;;;;;5071488;28;20457;-81
2022/10/28 03:00:18;;;;;;;7.90;3.00;;;17.00;99.90;;;;;;5072665;28;20465;-82
2022/10/28 03:02:46;;;;;;;5.33;2.80;;;16.30;99.90;;;;;;5072737;28;20461;-83
2022/10/28 03:05:14;;;;;;;6.00;2.77;;;;;;;;;;5072746;28;20450;-82
2022/10/28 03:07:41;;;;;;;8.20;3.37;;;;;;;;;;5072636;28;20500;-82
2022/10/28 03:10:09;;;;;;;7.37;2.67;;;16.70;99.90;;;;;;5072560;28;20988;-82
2022/10/28 03:12:36;;;;;;;7.97;3.13;;;;;;;;;;5071486;28;20450;-83
2022/10/28 03:15:03;;;;;;;5.10;3.63;;;16.40;99.90;;;;;;5072539;28;20460;-84
2022/10/28 03:17:30;;;;;;;6.77;3.13;;;;;;;;;;5072616;28;20536;-83
2022/10/28 03:19:58;;;;;;;5.90;2.80;;;16.80;99.90;;;;;;5072531;28;20454;-82
2022/10/28 03:22:25;;;;;;;7.23;2.33;;;;;;;;;;5072613;28;20476;-82
2022/10/28 03:24:52;;;;;;;10.60;2.93;;;;;;;;;;5072591;28;20453;-84
2022/10/28 03:27:19;;;;;;;7.33;2.60;;;;;;;;;;5071294;28;20446;-81
2022/10/28 03:29:46;;;;;;;5.20;2.20;;;17.00;99.90;;;;;;5074124;28;20992;-82
2022/10/28 03:32:13;;;;;;;6.83;2.70;;;16.90;99.90;;;;;;5076279;28;20952;-83
2022/10/28 03:34:40;;;;;;;4.37;2.30;;;;;;;;;;5076309;28;20453;-84
2022/10/28 03:37:08;;;;;;;7.63;3.30;;;16.70;99.90;;;;;;5076189;28;20460;-82
2022/10/28 03:39:35;;;;;;;5.90;2.50;;;;;;;;;;5076183;28;20449;-83
2022/10/28 03:42:02;;;;;;;6.00;2.40;;;;;;;;;;5074777;28;20456;-82
2022/10/28 03:44:29;;;;;;;5.30;2.50;;;16.80;99.90;;;;;;5075683;28;20508;-81
2022/10/28 03:46:56;;;;;;;5.00;2.33;;;17.40;99.90;;;;;;5077138;28;20461;-82
2022/10/28 03:49:23;;;;;;;3.10;2.73;;;;;;;;;;5075941;28;20500;-82
2022/10/28 03:51:50;;;;;;;6.70;2.10;;;;;;;;;;5075993;28;20813;-83
2022/10/28 03:54:18;;;;;;;5.90;2.47;;;17.40;98.20;;;;;;5075830;28;20449;-82
2022/10/28 03:56:45;;;;;;;5.03;2.17;;;17.60;99.90;;;;;;5074525;28;20449;-84
2022/10/28 03:59:12;;;;;;;4.23;2.10;;;17.40;99.90;;;;;;5073112;28;20472;-81
2022/10/28 04:01:39;;;;;;;6.90;2.43;;;17.60;99.90;;;;;;5068250;28;20441;-81
2022/10/28 04:04:06;;;;;;;5.83;2.40;;;17.30;99.90;;;;;;5075763;28;20444;-81
2022/10/28 04:06:33;;;;;;;7.23;2.17;;;;;;;;;;5075854;28;20457;-81
2022/10/28 04:09:00;;;;;;;3.67;2.00;;;17.20;99.90;;;;;;5075295;28;20501;-81
2022/10/28 04:11:28;;;;;;;8.03;2.63;;;17.10;99.90;;;;;;5074569;28;20810;-82
2022/10/28 04:13:55;;;;;;;9.27;2.47;;;;;;;;;;5075666;28;20442;-82
2022/10/28 04:16:22;;;;;;;6.33;2.63;;;17.50;99.90;;;;;;5075625;28;20798;-81
2022/10/28 04:18:49;;;;;;;5.97;2.50;;;;;;;;;;5075544;28;20459;-81
2022/10/28 04:21:15;;;;;;;5.43;2.60;;;17.20;99.90;;;;;;5075488;28;20448;-80
2022/10/28 04:23:43;;;;;;;4.60;2.00;;;;;;;;;;5075531;28;20455;-81
2022/10/28 04:26:09;;;;;;;7.80;2.37;;;17.60;99.90;;;;;;5074334;28;20456;-81
2022/10/28 04:28:37;;;;;;;4.77;1.77;;;17.30;99.90;;;;;;5077634;28;20484;-81
2022/10/28 04:31:04;;;;;;;7.13;2.30;;;17.30;99.90;;;;;;5098382;28;20414;-81
2022/10/28 04:33:31;;;;;;;5.53;2.37;;;;;;;;;;5086153;28;20444;-82
2022/10/28 04:35:58;;;;;;;6.43;1.80;;;17.20;99.90;;;;;;5075463;28;20792;-81
2022/10/28 04:38:25;;;;;;;4.87;2.57;;;17.70;99.90;;;;;;5075296;28;20476;-82
2022/10/28 04:40:52;;;;;;;11.40;2.00;;;17.20;99.90;;;;;;5074085;28;20801;-81
2022/10/28 04:43:19;;;;;;;4.30;2.23;;;17.20;99.90;;;;;;5074395;28;20450;-83
2022/10/28 04:45:47;;;;;;;4.67;2.40;;;16.90;99.90;;;;;;5075028;28;20936;-83
2022/10/28 04:48:14;;;;;;;4.03;2.33;;;16.90;99.90;;;;;;5075146;28;20450;-82
2022/10/28 04:50:40;;;;;;;4.37;2.20;;;16.80;99.90;;;;;;5075068;28;20445;-81
2022/10/28 04:53:07;;;;;;;4.87;1.97;;;17.00;99.90;;;;;;5074820;28;20453;-84
2022/10/28 04:55:34;;;;;;;3.77;2.67;;;;;;;;;;5074938;28;20449;-82
2022/10/28 04:58:01;;;;;;;3.87;2.30;;;16.50;99.90;;;;;;5073632;28;20474;-84
2022/10/28 05:00:29;;;;;;;6.53;2.77;;;16.60;99.90;;;;;;5075008;28;20458;-81
2022/10/28 05:03:00;;;;;;;7.60;4.13;;;16.10;99.90;;;;;;5074999;28;20463;-83
2022/10/28 05:05:27;;;;;;;13.83;3.23;;;16.00;99.90;;;;;;5074676;28;20441;-82
2022/10/28 05:07:54;;;;;;;8.53;4.57;;;15.80;99.90;;;;;;5074780;28;20450;-84
2022/10/28 05:10:20;;;;;;;8.10;3.13;;;15.80;99.90;;;;;;5074839;28;20499;-83
2022/10/28 05:12:47;;;;;;;7.03;3.47;;;;;;;;;;5073770;28;20460;-85
2022/10/28 05:15:16;;;;;;;8.00;3.43;;;;;;;;;;5075024;28;20886;-87
2022/10/28 05:17:44;;;;;;;3.00;2.80;;;15.70;99.90;;;;;;5074870;28;20480;-87
2022/10/28 05:20:14;;;;;;;6.93;2.70;;;14.90;99.90;;;;;;5074772;28;20449;-88
2022/10/28 05:22:46;;;;;;;6.60;3.10;;;16.20;99.90;;;;;;5074924;28;20449;-81
2022/10/28 05:25:13;;;;;;;6.47;1.87;;;;;;;;;;5074374;28;20445;-82
2022/10/28 05:27:40;;;;;;;4.10;2.20;;;16.40;99.90;;;;;;5073155;28;20446;-80
2022/10/28 05:30:11;;;;;;;3.10;1.50;;;16.20;99.90;;;;;;5074225;28;20501;-80
2022/10/28 05:32:38;;;;;;;6.10;1.80;;;;;;;;;;5074507;28;20445;-80
2022/10/28 05:35:05;;;;;;;6.80;2.10;;;16.90;99.90;;;;;;5074748;28;20445;-81
2022/10/28 05:37:33;;;;;;;2.53;1.60;;;16.50;99.90;;;;;;5074580;28;20460;-79
2022/10/28 05:40:00;;;;;;;4.83;2.27;;;17.60;99.90;;;;;;5073973;28;20449;-79
2022/10/28 05:42:27;;;;;;;6.73;2.27;;;16.70;99.90;;;;;;5072619;28;20441;-85
2022/10/28 05:44:54;;;;;;;6.50;2.13;;;16.70;99.90;;;;;;5073893;28;20453;-87
2022/10/28 05:47:20;;;;;;;3.53;1.70;;;16.70;99.90;;;;;;5079098;28;20438;-80
2022/10/28 05:49:47;;;;;;;4.77;2.20;;;16.60;99.90;;;;;;5083319;28;20835;-79
2022/10/28 05:52:14;;;;;;;4.10;1.77;;;;;;;;;;5090613;28;21114;-78
2022/10/28 05:54:42;;;;;;;4.73;2.07;;;17.00;99.90;;;;;;5081754;28;20441;-79
2022/10/28 05:57:09;;;;;;;5.07;1.90;;;;;;;;;;5080343;28;20451;-78
2022/10/28 05:59:36;;;;;;;7.23;1.70;;;;;;;;;;5081252;28;20782;-78
2022/10/28 06:02:04;;;;;;;5.07;2.17;;;;;;;;;;5073439;28;20450;-80
2022/10/28 06:04:32;;;;;;;5.20;2.07;;;;;;;;;;5073461;28;20453;-80
2022/10/28 06:06:59;;;;;;;2.93;1.80;;;;;;;;;;5073515;28;21163;-79
2022/10/28 06:09:27;;;;;;;3.80;2.63;;;16.70;99.90;;;;;;5073145;28;20512;-78
2022/10/28 06:11:55;;;;;;;6.00;1.97;;;17.10;99.90;;;;;;5071929;28;20449;-80
2022/10/28 06:14:22;;;;;;;3.33;1.60;;;16.90;99.90;;;;;;5073255;28;20461;-78
2022/10/28 06:16:49;;;;;;;4.03;2.17;;;16.70;99.90;;;;;;5073337;28;20813;-79
2022/10/28 06:19:16;;;;;;;6.07;1.43;;;;;;;;;;5072927;28;20460;-84
2022/10/28 06:21:43;;;;;;;3.63;2.10;;;;;;;;;;5073383;28;20473;-81
2022/10/28 06:24:10;;;;;;;3.63;2.00;;;16.60;99.90;;;;;;5073217;28;20450;-79
2022/10/28 06:26:37;;;;;;;4.63;2.27;;;;;;;;;;5072012;28;20950;-80
2022/10/28 06:29:05;;;;;;;2.50;2.00;;;16.80;99.90;;;;;;5072717;28;21012;-81
2022/10/28 06:31:33;;;;;;;4.60;2.00;;;;;;;;;;5073222;28;20465;-80
2022/10/28 06:34:00;;;;;;;5.87;2.23;;;16.60;99.90;;;;;;5073276;28;20444;-79
2022/10/28 06:36:28;;;;;;;6.63;1.90;;;;;;;;;;5073465;28;20548;-80
2022/10/28 06:38:55;;;;;;;14.40;2.50;;;;;;;;;;5073316;28;20450;-83
2022/10/28 06:41:22;;;;;;;9.17;2.70;;;;;;;;;;5072215;28;20445;-81
2022/10/28 06:43:49;;;;;;;2.77;2.00;;;;;;;;;;5086971;28;20969;-85
2022/10/28 06:46:17;;;;;;;4.27;2.40;;;16.60;99.90;;;;;;5093522;28;20451;-82
2022/10/28 06:48:44;;;;;;;4.53;2.37;;;16.30;99.90;;;;;;5093080;28;20441;-80
2022/10/28 06:51:11;;;;;;;3.73;2.40;;;16.20;99.90;;;;;;5093222;28;20453;-79
2022/10/28 06:53:38;;;;;;;5.00;2.00;;;;;;;;;;5093267;28;20444;-81
2022/10/28 06:56:06;;;;;;;5.83;2.63;;;16.30;99.90;;;;;;5092341;28;20489;-80
2022/10/28 06:58:33;;;;;;;3.03;1.93;;;;;;;;;;5092775;28;20465;-80
2022/10/28 07:01:03;;;;;;;6.10;2.27;;;16.60;99.90;;;;;;5093285;28;20460;-81
2022/10/28 07:03:32;;;;;;;4.63;2.20;;;16.50;99.90;;;;;;5094815;28;20445;-81
2022/10/28 07:05:59;;;;;;;6.93;2.90;;;;;;;;;;5109323;28;20463;-81
2022/10/28 07:08:27;;;;;;;12.80;2.77;;;16.60;99.90;;;;;;5101885;28;20443;-82
2022/10/28 07:10:55;;;;;;;7.17;2.60;;;16.40;99.90;;;;;;5096567;28;20854;-85
2022/10/28 07:13:21;;;;;;;8.00;2.97;;;16.10;99.90;;;;;;5096422;28;20479;-84
2022/10/28 07:15:51;;;;;;;6.43;2.20;;;16.00;99.90;;;;;;5096937;28;20911;-83
2022/10/28 07:18:18;;;;;;;3.07;2.33;;;16.40;99.90;;;;;;5097161;28;20470;-86
2022/10/28 07:20:46;;;;;;;4.40;2.00;;;16.70;99.90;;;;;;5096881;28;20449;-87
2022/10/28 07:23:13;;;;;;;4.80;1.60;;;;;;;;;;5061257;28;20445;-82
2022/10/28 07:25:41;;;;;;;9.80;1.90;;;;;;;;;;5094443;28;20444;-81
2022/10/28 07:28:08;;;;;;;8.07;2.20;;;;;;;;;;5094412;28;20444;-81
2022/10/28 07:30:35;;;;;;;2.33;2.07;;;;;;;;;;5096786;28;20510;-81
2022/10/28 07:33:03;;;;;;;3.77;1.90;;;;;;;;;;5094567;28;20443;-81
2022/10/28 07:35:30;;;;;;;4.40;1.90;;;17.50;95.50;;;;;;5093426;28;20453;-86
2022/10/28 07:37:59;;;;;;;3.00;1.90;;;17.80;99.90;;;;;;5076733;28;20472;-81
2022/10/28 07:40:26;;;;;;;3.57;1.50;;;17.90;99.90;;;;;;5096331;28;20449;-80
2022/10/28 07:42:53;;;;;;;2.17;1.53;;;;;;;;;;5095319;28;20453;-80
2022/10/28 07:45:20;;;;;;;4.07;1.80;;;17.90;99.90;;;;;;5096396;28;20803;-81
2022/10/28 07:47:47;;;;;;;3.60;1.73;;;17.60;99.90;;;;;;5096449;28;20444;-81
2022/10/28 07:50:14;;;;;;;8.30;2.13;;;17.60;97.80;;;;;;5096255;28;20493;-80
2022/10/28 07:52:41;;;;;;;5.50;2.07;;;;;;;;;;5096210;28;20449;-81
2022/10/28 07:55:11;;;;;;;9.60;1.60;;;17.90;99.90;;;;;;5096281;28;20448;-81
2022/10/28 07:57:38;;;;;;;3.30;1.67;;;17.80;99.90;;;;;;5095093;28;20455;-82
2022/10/28 08:00:07;;;;;;;4.33;1.30;;;18.00;99.90;;;;;;5094704;28;20458;-82
2022/10/28 08:02:33;;;;;;;3.30;1.50;;;18.50;99.90;;;;;;5096093;28;20463;-83
2022/10/28 08:05:01;;;;;;;3.53;1.70;;;;;;;;;;5094543;28;20444;-82
2022/10/28 08:07:28;;;;;;;3.13;1.43;;;18.20;99.90;;;;;;5094368;28;20456;-81
2022/10/28 08:09:55;;;;;;;2.27;1.40;;;18.40;99.90;;;;;;5096136;28;20496;-86
2022/10/28 08:12:23;;;;;;;3.60;1.63;;;18.40;99.90;;;;;;5095151;28;20451;-81
2022/10/28 08:14:51;;;;;;;4.03;1.50;;;18.70;99.90;;;;;;5095954;28;20440;-81
2022/10/28 08:17:18;;;;;;;3.90;2.10;;;;;;;;;;5061115;28;20453;-85
2022/10/28 08:19:45;;;;;;;5.43;1.77;;;18.60;99.90;;;;;;5096011;28;20452;-84
2022/10/28 08:22:12;;;;;;;3.57;2.00;;;;;;;;;;5096361;28;20448;-82
2022/10/28 08:24:39;;;;;;;7.47;1.80;;;;;;;;;;5095839;28;20445;-81
2022/10/28 08:27:06;;;;;;;3.00;1.70;;;19.50;99.90;;;;;;5094771;28;20449;-82
2022/10/28 08:29:34;;;;;;;4.90;2.10;;;18.30;91.20;;;;;;5095876;28;20468;-85
2022/10/28 08:32:01;;;;;;;8.80;2.00;;;18.80;99.90;;;;;;5095692;28;20520;-80
2022/10/28 08:34:29;;;;;;;6.97;1.67;;;18.50;99.20;;;;;;5092981;28;20448;-82
2022/10/28 08:36:57;;;;;;;6.37;1.47;;;18.80;98.70;;;;;;5095212;28;20449;-79
2022/10/28 08:39:24;;;;;;;3.23;1.60;;;;;;;;;;5095363;28;20465;-79
2022/10/28 08:41:58;;;;;;;3.50;1.33;;;19.00;99.90;;;;;;5094427;28;20921;-79
2022/10/28 08:44:45;;;;;;;4.50;1.50;;;18.70;97.60;;;;;;5095529;28;20927;-79
2022/10/28 08:47:23;;;;;;;3.37;1.43;;;18.90;99.90;;;;;;5095392;28;20437;-84
2022/10/28 08:49:55;;;;;;;2.23;1.30;;;19.10;97.20;;;;;;5079582;28;20474;-81
2022/10/28 08:52:27;;;;;;;6.40;2.10;;;19.40;89.20;;;;;;5073345;28;20450;-82
2022/10/28 08:55:02;;;;;;;5.30;1.73;;;19.30;99.90;;;;;;5077630;28;20449;-80
2022/10/28 08:57:36;;;;;;;2.53;1.67;;;19.40;99.90;;;;;;5079225;28;20452;-80
2022/10/28 09:00:06;;;;;;;4.70;1.47;;;;;;;;;;5074960;28;20449;-86
2022/10/28 09:02:49;;;;;;;5.47;1.30;;;20.00;96.10;;;;;;5075407;28;20464;-82
2022/10/28 09:05:22;;;;;;;4.47;1.93;;;19.90;99.90;;;;;;5095003;28;20946;-81
2022/10/28 09:07:49;;;;;;;3.70;1.87;;;19.90;98.80;;;;;;5094926;28;21102;-86
2022/10/28 09:10:18;;;;;;;1.77;1.47;;;20.10;87.60;;;;;;5087574;28;20497;-80
2022/10/28 09:12:53;;;;;;;8.20;2.10;;;19.70;99.90;;;;;;5083711;28;20443;-79
2022/10/28 09:15:31;;;;;;;3.30;2.00;;;20.30;97.20;;;;;;5092298;28;20543;-78
2022/10/28 09:18:05;;;;;;;3.60;2.10;;;20.30;95.70;;;;;;5087530;28;20429;-78
2022/10/28 09:20:43;;;;;;;2.27;1.30;;;20.20;98.50;;;;;;5081071;28;20448;-77
2022/10/28 09:23:20;;;;;;;3.47;1.50;;;20.30;95.40;;;;;;5088915;28;20451;-83
2022/10/28 09:25:58;;;;;;;2.80;1.60;;;20.10;95.10;;;;;;5074415;28;20532;-79
2022/10/28 09:28:38;;;;;;;1.73;1.50;;;20.40;87.70;;;;;;5072911;28;20446;-78
2022/10/28 09:31:15;;;;;;;10.83;2.20;;;20.20;87.60;;;;;;5079636;28;20904;-81
2022/10/28 09:34:05;;;;;;;7.90;2.30;;;20.20;90.30;;;;;;5082850;28;20938;-77
2022/10/28 09:36:34;;;;;;;4.73;2.47;;;20.30;99.90;;;;;;5076711;28;20811;-80
2022/10/28 09:39:03;;;;;;;4.43;2.03;;;19.90;99.90;;;;;;5086046;28;20468;-78
2022/10/28 09:41:33;;;;;;;7.67;1.97;;;20.10;99.70;;;;;;5094883;28;20445;-78
2022/10/28 09:44:11;;;;;;;5.67;1.70;;;20.50;85.70;;;;;;5074488;28;20958;-91
2022/10/28 09:46:40;;;;;;;5.23;1.30;;;20.80;97.60;;;;;;5073870;28;20453;-80
2022/10/28 09:49:16;;;;;;;2.67;1.57;;;20.80;86.60;;;;;;5073864;28;20474;-82
2022/10/28 09:51:49;;;;;;;4.70;1.30;;;21.20;97.50;;;;;;5073748;28;20485;-82
2022/10/28 09:54:17;;;;;;;5.00;1.60;;;21.90;93.70;;;;;;5073527;28;20952;-81
2022/10/28 09:56:44;;;;;;;3.60;1.90;;;;;;;;;;5072814;28;20458;-81
2022/10/28 09:59:15;;;;;;;2.13;1.30;;;21.70;81.10;;;;;;5073796;28;20450;-85
2022/10/28 10:01:46;;;;;;;4.50;1.63;;;21.90;93.00;;;;;;5073592;28;20454;-80
2022/10/28 10:04:18;;;;;;;2.60;1.27;;;21.70;96.40;;;;;;5073420;28;20457;-82
2022/10/28 10:06:49;;;;;;;2.87;1.60;;;21.70;96.70;;;;;;5073384;28;21015;-79
2022/10/28 10:09:21;;;;;;;4.63;1.40;;;21.60;98.20;;;;;;5073206;28;20470;-87
2022/10/28 10:11:52;;;;;;;7.03;2.37;;;21.80;93.30;;;;;;5072399;28;20516;-82
2022/10/28 10:14:24;;;;;;;2.80;1.67;;;21.60;81.50;;;;;;5073237;28;21087;-85
2022/10/28 10:16:54;;;;;;;6.47;2.33;;;21.40;82.00;;;;;;5073054;28;20456;-79
2022/10/28 10:19:21;;;;;;;4.07;1.60;;;;;;;;;;5072984;28;20458;-82
2022/10/28 10:21:49;;;;;;;5.97;1.77;;;21.40;83.00;;;;;;5072803;28;20465;-81
2022/10/28 10:24:31;;;;;;;4.03;1.80;;;21.10;98.60;;;;;;5072910;28;20807;-86
2022/10/28 10:27:00;;;;;;;3.07;1.30;;;21.20;98.00;;;;;;5071680;28;20852;-79
2022/10/28 10:29:27;;;;;;;5.80;1.87;;;21.50;97.10;;;;;;5072955;28;20442;-80
2022/10/28 10:32:13;;;;;;;3.00;1.73;;;21.20;94.50;;;;;;5072833;28;20496;-84
2022/10/28 10:34:44;;;;;;;5.20;1.57;;;21.50;98.60;;;;;;5073073;28;20445;-81
2022/10/28 10:37:18;;;;;;;6.57;1.90;;;21.30;82.80;;;;;;5072821;28;20988;-82
2022/10/28 10:39:45;;;;;;;2.80;1.37;;;21.60;98.00;;;;;;5072202;28;20444;-87
2022/10/28 10:42:16;;;;;;;2.40;1.30;;;21.40;82.00;;;;;;5071820;28;20458;-82
2022/10/28 10:44:43;;;;;;;6.13;1.80;;;21.50;94.10;;;;;;5072983;28;20457;-80
2022/10/28 10:47:19;;;;;;;4.40;1.90;;;21.40;82.70;;;;;;5073565;28;20454;-81
2022/10/28 10:49:46;;;;;;;4.90;1.37;;;21.20;93.30;;;;;;5079364;28;20879;-79
2022/10/28 10:52:20;;;;;;;3.67;2.10;;;21.70;98.30;;;;;;5092924;28;20492;-92
2022/10/28 10:54:58;;;;;;;5.10;2.00;;;21.60;98.00;;;;;;5081214;28;20438;-89
2022/10/28 10:57:26;;;;;;;4.00;1.70;;;21.40;82.70;;;;;;5070865;28;20446;-80
2022/10/28 10:59:54;;;;;;;5.00;1.60;;;21.20;93.80;;;;;;5072336;28;20441;-78
2022/10/28 11:02:26;;;;;;;9.43;1.47;;;21.80;96.40;;;;;;5072416;28;20813;-79
2022/10/28 11:04:59;;;;;;;4.70;1.83;;;21.50;83.50;;;;;;5072856;28;20498;-81
2022/10/28 11:07:27;;;;;;;7.30;1.40;;;21.60;83.20;;;;;;5073176;28;20936;-79
2022/10/28 11:09:54;;;;;;;5.23;1.30;;;21.70;82.50;;;;;;5072952;28;20478;-89
2022/10/28 11:12:27;;;;;;;3.13;1.60;;;22.00;97.60;;;;;;5071875;28;20499;-80
2022/10/28 11:14:57;;;;;;;7.30;2.43;;;21.70;82.00;;;;;;5072580;28;20454;-80
2022/10/28 11:17:27;;;;;;;5.60;2.13;;;21.70;82.60;;;;;;5072629;28;20448;-84
2022/10/28 11:19:56;;;;;;;2.13;1.50;;;21.60;97.20;;;;;;5072473;28;20452;-86
2022/10/28 11:22:34;;;;;;;15.63;14.10;;;21.60;98.20;;;;;;5072605;28;20453;-83
2022/10/28 11:25:33;;;;;;;7.17;2.83;;;21.90;97.80;;;;;;5072494;28;20532;-84
2022/10/28 11:28:20;;;;;;;12.23;10.10;;;21.80;97.80;;;;;;5071266;28;20515;-86
2022/10/28 11:30:58;;;;;;;8.03;7.33;;;21.60;98.30;;;;;;5072399;28;20507;-84
2022/10/28 11:33:36;;;;;;;3.60;1.93;;;21.90;97.60;;;;;;5072402;28;20948;-79
2022/10/28 11:36:15;;;;;;;5.13;1.70;;;22.30;82.50;;;;;;5072388;28;20448;-80
2022/10/28 11:39:01;;;;;;;15.63;11.83;;;22.00;97.70;;;;;;5072135;28;20469;-85
2022/10/28 11:41:37;;;;;;;8.93;2.30;;;22.20;82.10;;;;;;5070908;28;20450;-84
2022/10/28 11:44:15;;;;;;;2.60;1.53;;;21.80;93.20;;;;;;5072562;28;20449;-78
2022/10/28 11:46:53;;;;;;;5.60;2.67;;;23.40;73.70;;;;;;5072794;28;20818;-89
2022/10/28 11:50:01;;;;;;;3.80;1.10;;;24.50;83.60;;;;;;5072575;28;20453;-86
2022/10/28 11:52:41;;;;;;;4.50;1.60;;;23.80;91.00;;;;;;5061364;28;20497;-83
2022/10/28 11:55:18;;;;;;;4.60;1.40;;;22.60;81.20;;;;;;5076172;28;20449;-80
2022/10/28 11:57:57;;;;;;;5.53;1.70;;;22.30;82.70;;;;;;5074529;28;20446;-85
2022/10/28 12:00:34;;;;;;;8.93;1.97;;;22.20;98.40;;;;;;5076094;28;20452;-79
2022/10/28 12:03:40;;;;;;;8.13;2.17;;;22.40;98.50;;;;;;5075717;28;20445;-85
2022/10/28 12:06:16;;;;;;;2.60;2.00;;;22.10;97.60;;;;;;5075866;28;20489;-78
2022/10/28 12:09:01;;;;;;;2.20;1.63;;;22.10;98.90;;;;;;5075712;28;20457;-82
2022/10/28 12:11:39;;;;;;;4.07;1.80;;;22.20;97.90;;;;;;5074417;28;20599;-82
2022/10/28 12:14:14;;;;;;;5.20;1.57;;;22.30;98.50;;;;;;5075682;28;20455;-84
2022/10/28 12:16:47;;;;;;;3.50;1.50;;;22.90;98.50;;;;;;5075675;28;20460;-84
2022/10/28 12:19:19;;;;;;;4.70;1.70;;;22.90;93.50;;;;;;5076103;28;20450;-81
2022/10/28 12:21:55;;;;;;;3.27;1.70;;;23.30;84.90;;;;;;5075515;28;20453;-86
2022/10/28 12:24:24;;;;;;;6.57;1.50;;;23.40;97.10;;;;;;5075652;28;20446;-84
2022/10/28 12:26:56;;;;;;;3.37;1.70;;;24.00;91.80;;;;;;5074276;28;20812;-90
2022/10/28 12:29:26;;;;;;;4.10;1.97;;;24.10;76.30;;;;;;5075464;28;20944;-78
2022/10/28 12:31:58;;;;;;;5.50;2.00;;;24.40;93.80;;;;;;5075333;28;20497;-83
2022/10/28 12:34:31;;;;;;;6.60;2.10;;;24.80;77.10;;;;;;5074907;28;20452;-83
2022/10/28 12:37:04;;;;;;;4.13;2.07;;;25.60;74.00;;;;;;5074935;28;20473;-85
2022/10/28 12:39:34;;;;;;;6.00;1.93;;;25.40;93.50;;;;;;5075621;28;20468;-88
2022/10/28 12:42:05;;;;;;;3.70;2.00;;;24.90;70.70;;;;;;5074037;28;20446;-87
2022/10/28 12:44:33;;;;;;;5.33;2.13;;;25.40;71.00;;;;;;5075038;28;20452;-84
2022/10/28 12:47:14;;;;;;;4.07;1.80;;;25.60;71.50;;;;;;5075033;28;20453;-77
2022/10/28 12:49:54;;;;;;;3.37;1.63;;;25.50;70.00;;;;;;5075052;28;20437;-84
2022/10/28 12:52:38;;;;;;;5.23;2.13;;;25.40;71.00;;;;;;5074926;28;20493;-84
2022/10/28 12:55:17;;;;;;;4.40;2.07;;;25.50;70.00;;;;;;5074760;28;20446;-82
2022/10/28 12:57:49;;;;;;;6.53;1.90;;;25.60;69.20;;;;;;5073827;28;20441;-82
2022/10/28 13:00:19;;;;;;;4.77;2.10;;;25.30;70.50;;;;;;5074415;28;20474;-83
2022/10/28 13:02:51;;;;;;;6.90;1.90;;;24.90;71.50;;;;;;5074395;28;20445;-86
2022/10/28 13:05:23;;;;;;;5.10;2.47;;;24.30;93.80;;;;;;5094883;28;20452;-87
2022/10/28 13:08:19;;;;;;;6.30;2.00;;;24.40;72.30;;;;;;5094741;28;20452;-86
2022/10/28 13:10:51;;;;;;;6.67;2.13;;;24.40;92.40;;;;;;5076795;28;20476;-86
2022/10/28 13:13:38;;;;;;;7.10;2.27;;;25.10;97.20;;;;;;5093534;28;20449;-78
2022/10/28 13:16:24;;;;;;;4.30;2.90;;;25.60;71.40;;;;;;5087453;28;20476;-87
2022/10/28 13:19:10;;;;;;;9.97;2.93;;;26.00;95.80;;;;;;5075551;28;20480;-84
2022/10/28 13:22:00;;;;;;;3.33;2.17;;;26.10;90.70;;;;;;5074393;28;20816;-77
2022/10/28 13:24:34;;;;;;;5.07;2.00;;;26.00;94.00;;;;;;5074395;28;20457;-77
2022/10/28 13:27:03;;;;;;;10.07;2.17;;;26.90;89.00;;;;;;5072940;28;20948;-77